Time;durP1;ratioP1;P1;durP2;ratioP2;P2;SDS_P1;SDS_P2;PMS_P1;PMS_P2;Temp;Humidity;BMP_temperature;BMP_pressure;BME280_temperature;BME280_humidity;BME280_pressure;Samples;Min_cycle;Max_cycle;Signal;HPM_P1;HPM_P2
2022/05/12 00:01:45;;;;;;;;;;;17.50;90.10;;;;;;5027578;28;19983;-64
2022/05/12 00:04:10;;;;;;;;;;;17.40;90.20;;;;;;5043753;28;19917;-64
2022/05/12 00:06:36;;;;;;;;;;;17.40;90.10;;;;;;5038614;28;20282;-65
2022/05/12 00:09:02;;;;;;;;;;;17.30;90.20;;;;;;5035209;28;19968;-64
2022/05/12 00:11:30;;;;;;;;;;;17.30;90.80;;;;;;5030694;28;20324;-62
2022/05/12 00:13:55;;;;;;;;;;;17.20;90.40;;;;;;5044070;28;19960;-63
2022/05/12 00:16:21;;;;;;;;;;;17.20;90.50;;;;;;5033503;28;19909;-63
2022/05/12 00:18:46;;;;;;;;;;;17.20;90.60;;;;;;5029258;28;19917;-64
2022/05/12 00:21:12;;;;;;;;;;;17.20;91.10;;;;;;5029012;28;19909;-64
2022/05/12 00:23:37;;;;;;;;;;;17.10;90.90;;;;;;5028951;28;19920;-64
2022/05/12 00:26:03;;;;;;;;;;;17.10;90.90;;;;;;5028951;28;19917;-64
2022/05/12 00:28:28;;;;;;;;;;;17.10;91.10;;;;;;5048969;28;19917;-63
2022/05/12 00:30:55;;;;;;;;;;;17.10;91.40;;;;;;5031997;28;19991;-63
2022/05/12 00:33:22;;;;;;;;;;;17.10;91.60;;;;;;5039218;28;19955;-63
2022/05/12 00:35:48;;;;;;;;;;;17.00;91.20;;;;;;5036753;28;19917;-62
2022/05/12 00:38:13;;;;;;;;;;;17.00;91.90;;;;;;5034825;28;19909;-63
2022/05/12 00:40:41;;;;;;;;;;;17.00;91.60;;;;;;5032688;28;20310;-65
2022/05/12 00:43:08;;;;;;;;;;;16.90;91.90;;;;;;5033284;28;19967;-63
2022/05/12 00:45:38;;;;;;;;;;;16.90;91.70;;;;;;5028981;28;19917;-62
2022/05/12 00:48:04;;;;;;;;;;;16.90;92.00;;;;;;5029668;28;19921;-63
2022/05/12 00:50:36;;;;;;;;;;;16.90;91.80;;;;;;5028075;28;19955;-65
2022/05/12 00:53:04;;;;;;;;;;;16.90;91.80;;;;;;5033967;28;20552;-63
2022/05/12 00:55:35;;;;;;;;;;;16.80;92.10;;;;;;5031521;28;19916;-65
2022/05/12 00:58:02;;;;;;;;;;;16.80;92.30;;;;;;5032864;28;19915;-63
2022/05/12 01:00:27;;;;;;;;;;;16.70;92.20;;;;;;5028269;28;19948;-62
2022/05/12 01:02:58;;;;;;;;;;;16.70;92.50;;;;;;5028199;28;19939;-63
2022/05/12 01:05:24;;;;;;;;;;;16.70;92.30;;;;;;5031848;28;19959;-63
2022/05/12 01:07:51;;;;;;;;;;;16.70;92.10;;;;;;5028097;28;19918;-62
2022/05/12 01:10:17;;;;;;;;;;;16.70;92.70;;;;;;5031970;28;20393;-63
2022/05/12 01:12:44;;;;;;;;;;;16.70;92.40;;;;;;5040467;28;19913;-63
2022/05/12 01:15:10;;;;;;;;;;;16.70;92.90;;;;;;5036039;28;20278;-63
2022/05/12 01:17:36;;;;;;;;;;;16.70;92.80;;;;;;5027618;28;19917;-64
2022/05/12 01:20:01;;;;;;;;;;;16.70;93.10;;;;;;5029684;28;20325;-64
2022/05/12 01:22:38;;;;;;;;;;;16.60;92.70;;;;;;5031928;28;19913;-64
2022/05/12 01:25:11;;;;;;;;;;;16.50;92.60;;;;;;5032709;28;20008;-61
2022/05/12 01:27:37;;;;;;;;;;;16.50;92.60;;;;;;5027452;28;19917;-62
2022/05/12 01:30:03;;;;;;;;;;;16.40;92.40;;;;;;5027976;28;19982;-62
2022/05/12 01:32:28;;;;;;;;;;;16.40;92.90;;;;;;5031113;28;19913;-64
2022/05/12 01:34:54;;;;;;;;;;;16.40;92.90;;;;;;5031171;28;19921;-63
2022/05/12 01:37:20;;;;;;;;;;;16.30;93.10;;;;;;5032420;28;19913;-64
2022/05/12 01:39:46;;;;;;;;;;;16.30;92.90;;;;;;5061921;28;19909;-63
2022/05/12 01:42:12;;;;;;;;;;;16.30;93.20;;;;;;5027396;28;20287;-63
2022/05/12 01:44:38;;;;;;;;;;;16.30;93.00;;;;;;5027398;28;19932;-64
2022/05/12 01:47:04;;;;;;;;;;;16.20;92.70;;;;;;5030551;28;19975;-63
2022/05/12 01:49:30;;;;;;;;;;;16.20;92.60;;;;;;5031253;28;20477;-63
2022/05/12 01:51:56;;;;;;;;;;;16.30;92.90;;;;;;5032058;28;20012;-62
2022/05/12 01:54:23;;;;;;;;;;;16.20;92.80;;;;;;5028161;28;19909;-64
2022/05/12 01:56:49;;;;;;;;;;;16.20;92.80;;;;;;5038784;28;20290;-64
2022/05/12 01:59:14;;;;;;;;;;;16.20;92.60;;;;;;5043169;28;19931;-65
2022/05/12 02:01:40;;;;;;;;;;;16.20;93.00;;;;;;5044085;28;19921;-63
2022/05/12 02:04:05;;;;;;;;;;;16.20;93.00;;;;;;5038616;28;20270;-65
2022/05/12 02:06:31;;;;;;;;;;;16.10;93.10;;;;;;5038554;28;19959;-63
2022/05/12 02:08:57;;;;;;;;;;;16.10;93.30;;;;;;5033054;28;19917;-64
2022/05/12 02:11:23;;;;;;;;;;;16.10;93.60;;;;;;5028271;28;20345;-63
2022/05/12 02:13:49;;;;;;;;;;;16.10;93.40;;;;;;5043536;28;20414;-62
2022/05/12 02:16:14;;;;;;;;;;;16.10;93.30;;;;;;5031159;28;20000;-63
2022/05/12 02:18:40;;;;;;;;;;;16.10;93.60;;;;;;5029583;28;19920;-62
2022/05/12 02:21:05;;;;;;;;;;;16.10;93.90;;;;;;5026404;28;20329;-62
2022/05/12 02:23:31;;;;;;;;;;;16.00;93.50;;;;;;5026673;28;19952;-63
2022/05/12 02:25:56;;;;;;;;;;;16.00;93.60;;;;;;5027911;28;19929;-62
2022/05/12 02:28:22;;;;;;;;;;;15.90;93.80;;;;;;5030160;28;19996;-64
2022/05/12 02:30:47;;;;;;;;;;;15.90;93.80;;;;;;5026657;28;19917;-64
2022/05/12 02:33:13;;;;;;;;;;;15.90;93.70;;;;;;5028456;28;19963;-63
2022/05/12 02:35:39;;;;;;;;;;;15.90;93.70;;;;;;5025849;28;20402;-64
2022/05/12 02:38:05;;;;;;;;;;;15.90;93.40;;;;;;5028501;28;20430;-63
2022/05/12 02:40:31;;;;;;;;;;;15.80;93.50;;;;;;5028832;28;19920;-63
2022/05/12 02:42:57;;;;;;;;;;;15.70;93.30;;;;;;5028005;28;19913;-63
2022/05/12 02:45:23;;;;;;;;;;;15.60;93.20;;;;;;5025408;28;19924;-62
2022/05/12 02:47:49;;;;;;;;;;;15.50;92.70;;;;;;5030462;28;19929;-62
2022/05/12 02:50:15;;;;;;;;;;;15.50;92.40;;;;;;5040568;28;19917;-61
2022/05/12 02:52:42;;;;;;;;;;;15.50;92.30;;;;;;5027295;28;20046;-64
2022/05/12 02:55:08;;;;;;;;;;;15.50;92.20;;;;;;5029656;28;20294;-62
2022/05/12 02:57:34;;;;;;;;;;;15.40;92.00;;;;;;5036261;28;20019;-64
2022/05/12 02:59:59;;;;;;;;;;;15.40;92.00;;;;;;5032038;28;20377;-63
2022/05/12 03:02:25;;;;;;;;;;;15.50;92.00;;;;;;5026100;28;19913;-63
2022/05/12 03:04:50;;;;;;;;;;;15.40;92.00;;;;;;5027434;28;19921;-62
2022/05/12 03:07:17;;;;;;;;;;;15.40;92.10;;;;;;5037805;28;19915;-63
2022/05/12 03:09:43;;;;;;;;;;;15.40;92.20;;;;;;5029393;28;20426;-63
2022/05/12 03:12:08;;;;;;;;;;;15.40;92.40;;;;;;5026090;28;19943;-63
2022/05/12 03:14:34;;;;;;;;;;;15.40;92.50;;;;;;5026650;28;20294;-64
2022/05/12 03:16:59;;;;;;;;;;;15.50;92.30;;;;;;5032590;28;20291;-62
2022/05/12 03:19:25;;;;;;;;;;;15.50;92.60;;;;;;5029749;28;19909;-63
2022/05/12 03:21:51;;;;;;;;;;;15.50;92.50;;;;;;5033224;28;20000;-64
2022/05/12 03:24:17;;;;;;;;;;;15.50;92.40;;;;;;5030014;28;20023;-63
2022/05/12 03:26:42;;;;;;;;;;;15.50;92.30;;;;;;5030456;28;20433;-63
2022/05/12 03:29:08;;;;;;;;;;;15.40;92.20;;;;;;5040097;28;20009;-64
2022/05/12 03:31:33;;;;;;;;;;;15.40;92.20;;;;;;5040735;28;19909;-61
2022/05/12 03:34:00;;;;;;;;;;;15.30;91.80;;;;;;5028789;28;19909;-64
2022/05/12 03:36:25;;;;;;;;;;;15.20;91.70;;;;;;5025286;28;19914;-63
2022/05/12 03:38:51;;;;;;;;;;;15.20;91.80;;;;;;5027964;28;19913;-63
2022/05/12 03:41:17;;;;;;;;;;;15.10;91.80;;;;;;5030884;28;19920;-62
2022/05/12 03:46:26;;;;;;;;;;;15.10;92.00;;;;;;5032494;28;19924;-62
2022/05/12 03:48:52;;;;;;;;;;;15.10;92.00;;;;;;5049665;28;19929;-64
2022/05/12 03:51:17;;;;;;;;;;;15.10;92.20;;;;;;5032741;28;20432;-61
2022/05/12 03:53:43;;;;;;;;;;;15.10;92.10;;;;;;5032464;28;20015;-60
2022/05/12 03:56:08;;;;;;;;;;;15.10;92.10;;;;;;5030708;28;20012;-65
2022/05/12 03:58:34;;;;;;;;;;;15.00;92.10;;;;;;5046530;28;19984;-63
2022/05/12 04:01:00;;;;;;;;;;;15.00;92.00;;;;;;5031394;28;19913;-62
2022/05/12 04:03:26;;;;;;;;;;;14.90;92.30;;;;;;5032234;28;20398;-63
2022/05/12 04:05:53;;;;;;;;;;;14.80;92.30;;;;;;5030578;28;19929;-62
2022/05/12 04:08:18;;;;;;;;;;;14.80;92.10;;;;;;5037341;28;19924;-62
2022/05/12 04:10:44;;;;;;;;;;;14.80;92.20;;;;;;5030115;28;19914;-62
2022/05/12 04:13:09;;;;;;;;;;;14.90;92.20;;;;;;5048121;28;19958;-63
2022/05/12 04:15:35;;;;;;;;;;;14.80;92.10;;;;;;5031345;28;19913;-62
2022/05/12 04:18:01;;;;;;;;;;;14.80;92.50;;;;;;5030298;28;19961;-63
2022/05/12 04:20:28;;;;;;;;;;;14.80;92.50;;;;;;5031122;28;20424;-62
2022/05/12 04:22:54;;;;;;;;;;;14.70;92.40;;;;;;5039540;28;19919;-64
2022/05/12 04:25:19;;;;;;;;;;;14.70;92.30;;;;;;5048220;28;19916;-64
2022/05/12 04:27:45;;;;;;;;;;;14.70;92.50;;;;;;5032489;28;20298;-65
2022/05/12 04:30:12;;;;;;;;;;;14.60;92.40;;;;;;5029519;28;19914;-64
2022/05/12 04:32:37;;;;;;;;;;;14.60;92.60;;;;;;5032056;28;19921;-64
2022/05/12 04:35:14;;;;;;;;;;;14.60;92.80;;;;;;5032795;28;19919;-62
2022/05/12 04:37:49;;;;;;;;;;;14.60;93.00;;;;;;5029209;28;20714;-64
2022/05/12 04:40:22;;;;;;;;;;;14.60;92.90;;;;;;5047657;28;19909;-65
2022/05/12 04:42:49;;;;;;;;;;;14.60;92.90;;;;;;5031471;28;19917;-64
2022/05/12 04:45:15;;;;;;;;;;;14.60;92.80;;;;;;5032606;28;19932;-64
2022/05/12 04:47:41;;;;;;;;;;;14.60;92.90;;;;;;5028309;28;19924;-64
2022/05/12 04:50:07;;;;;;;;;;;14.60;93.10;;;;;;5028911;28;20003;-62
2022/05/12 04:52:33;;;;;;;;;;;14.50;93.60;;;;;;5030475;28;19913;-64
2022/05/12 04:54:58;;;;;;;;;;;14.50;93.50;;;;;;5030112;28;19956;-63
2022/05/12 04:57:24;;;;;;;;;;;14.50;93.50;;;;;;5030137;28;19913;-62
2022/05/12 04:59:51;;;;;;;;;;;14.50;93.50;;;;;;5028764;28;19917;-61
2022/05/12 05:02:17;;;;;;;;;;;14.50;93.50;;;;;;5028394;28;19920;-63
2022/05/12 05:04:43;;;;;;;;;;;14.50;93.60;;;;;;5029061;28;19930;-63
2022/05/12 05:07:10;;;;;;;;;;;14.60;93.70;;;;;;5032956;28;19955;-60
2022/05/12 05:09:36;;;;;;;;;;;14.60;93.70;;;;;;5027667;28;19992;-64
2022/05/12 05:12:02;;;;;;;;;;;14.60;93.90;;;;;;5035667;28;20321;-61
2022/05/12 05:14:27;;;;;;;;;;;14.60;93.50;;;;;;5041933;28;20433;-63
2022/05/12 05:16:53;;;;;;;;;;;14.70;93.60;;;;;;5029329;28;19913;-63
2022/05/12 05:19:18;;;;;;;;;;;14.60;93.70;;;;;;5033176;28;20366;-62
2022/05/12 05:21:44;;;;;;;;;;;14.60;93.80;;;;;;5031619;28;19999;-62
2022/05/12 05:24:10;;;;;;;;;;;14.60;93.90;;;;;;5035903;28;19917;-63
2022/05/12 05:26:35;;;;;;;;;;;14.60;93.70;;;;;;5031435;28;20366;-62
2022/05/12 05:29:01;;;;;;;;;;;14.70;93.80;;;;;;5029055;28;19914;-61
2022/05/12 05:31:27;;;;;;;;;;;14.60;93.90;;;;;;5031566;28;19909;-62
2022/05/12 05:33:52;;;;;;;;;;;14.70;93.90;;;;;;5032066;28;19913;-63
2022/05/12 05:36:18;;;;;;;;;;;14.70;93.90;;;;;;5027438;28;19928;-62
2022/05/12 05:38:43;;;;;;;;;;;14.60;94.10;;;;;;5033049;28;20028;-62
2022/05/12 05:41:09;;;;;;;;;;;14.60;94.20;;;;;;5028256;28;19925;-59
2022/05/12 05:43:35;;;;;;;;;;;14.60;94.30;;;;;;5029843;28;19916;-61
2022/05/12 05:46:01;;;;;;;;;;;14.60;94.10;;;;;;5029881;28;19917;-61
2022/05/12 05:48:26;;;;;;;;;;;14.70;94.10;;;;;;5027367;28;19953;-61
2022/05/12 05:53:37;;;;;;;;;;;14.60;94.30;;;;;;5030933;28;19966;-61
2022/05/12 05:56:05;;;;;;;;;;;14.70;94.40;;;;;;5033750;28;20334;-61
2022/05/12 05:58:30;;;;;;;;;;;14.70;94.40;;;;;;5044988;28;20544;-61
2022/05/12 06:00:56;;;;;;;;;;;14.70;94.30;;;;;;5029221;28;20020;-62
2022/05/12 06:03:22;;;;;;;;;;;14.80;94.40;;;;;;5032402;28;19979;-63
2022/05/12 06:05:48;;;;;;;;;;;14.80;94.40;;;;;;5029859;28;19987;-62
2022/05/12 06:08:14;;;;;;;;;;;14.90;94.40;;;;;;5028782;28;19917;-61
2022/05/12 06:10:41;;;;;;;;;;;14.90;94.40;;;;;;5030132;28;19913;-63
2022/05/12 06:13:06;;;;;;;;;;;14.80;94.50;;;;;;5029719;28;20294;-63
2022/05/12 06:15:32;;;;;;;;;;;14.90;94.40;;;;;;5027830;28;19917;-64
2022/05/12 06:17:58;;;;;;;;;;;14.90;94.50;;;;;;5026491;28;20011;-63
2022/05/12 06:20:23;;;;;;;;;;;14.90;94.60;;;;;;5027501;28;19941;-62
2022/05/12 06:22:49;;;;;;;;;;;14.90;94.40;;;;;;5023793;28;19925;-63
2022/05/12 06:25:16;;;;;;;;;;;15.00;94.40;;;;;;5028635;28;19944;-62
2022/05/12 06:27:42;;;;;;;;;;;15.10;94.40;;;;;;5025421;28;19919;-62
2022/05/12 06:30:11;;;;;;;;;;;15.10;94.30;;;;;;5029303;28;19926;-61
2022/05/12 06:32:40;;;;;;;;;;;15.10;94.10;;;;;;5026889;28;20351;-62
2022/05/12 06:35:09;;;;;;;;;;;15.10;94.40;;;;;;5027482;28;19913;-66
2022/05/12 06:37:35;;;;;;;;;;;15.10;94.80;;;;;;5047520;28;19908;-61
2022/05/12 06:40:01;;;;;;;;;;;15.20;94.40;;;;;;5040720;28;19909;-61
2022/05/12 06:42:27;;;;;;;;;;;15.20;94.20;;;;;;5021859;28;20381;-62
2022/05/12 06:44:54;;;;;;;;;;;15.30;94.30;;;;;;5025107;28;20434;-61
2022/05/12 06:47:19;;;;;;;;;;;15.30;94.30;;;;;;5024014;28;19925;-61
2022/05/12 06:49:48;;;;;;;;;;;15.30;94.10;;;;;;5023476;28;20469;-62
2022/05/12 06:52:14;;;;;;;;;;;15.40;94.00;;;;;;5021698;28;20330;-62
2022/05/12 06:54:40;;;;;;;;;;;15.40;94.00;;;;;;5017416;28;20445;-62
2022/05/12 06:57:06;;;;;;;;;;;15.40;94.00;;;;;;5021922;28;19971;-62
2022/05/12 06:59:35;;;;;;;;;;;15.40;93.80;;;;;;5027539;28;19917;-61
2022/05/12 07:02:00;;;;;;;;;;;15.40;93.70;;;;;;5022953;28;20330;-62
2022/05/12 07:04:29;;;;;;;;;;;15.40;93.60;;;;;;5020266;28;19940;-62
2022/05/12 07:06:54;;;;;;;;;;;15.40;93.70;;;;;;5024265;28;19968;-60
2022/05/12 07:09:20;;;;;;;;;;;15.40;93.40;;;;;;5024380;28;19952;-62
2022/05/12 07:11:46;;;;;;;;;;;15.40;93.30;;;;;;5023754;28;19947;-59
2022/05/12 07:14:14;;;;;;;;;;;15.40;93.40;;;;;;5023879;28;20338;-61
2022/05/12 07:16:41;;;;;;;;;;;15.40;93.20;;;;;;5024590;28;19921;-60
2022/05/12 07:19:06;;;;;;;;;;;15.50;93.10;;;;;;5028180;28;20397;-59
2022/05/12 07:27:00;;;;;;;;;;;15.50;93.00;;;;;;5027078;28;20568;-65
2022/05/12 07:29:27;;;;;;;;;;;15.60;93.00;;;;;;5025761;28;19913;-63
2022/05/12 07:31:53;;;;;;;;;;;15.60;92.80;;;;;;5024985;28;20341;-65
2022/05/12 07:34:19;;;;;;;;;;;15.70;92.30;;;;;;5029176;28;19917;-63
2022/05/12 07:36:50;;;;;;;;;;;15.70;92.10;;;;;;5031455;28;20373;-64
2022/05/12 07:39:16;;;;;;;;;;;15.80;92.50;;;;;;5026229;28;19923;-65
2022/05/12 07:41:42;;;;;;;;;;;15.90;92.40;;;;;;5034957;28;20418;-64
2022/05/12 07:44:13;;;;;;;;;;;15.90;91.90;;;;;;5025547;28;20000;-65
2022/05/12 07:46:38;;;;;;;;;;;15.90;91.70;;;;;;5021161;28;19922;-65
2022/05/12 07:49:04;;;;;;;;;;;15.80;91.60;;;;;;5026898;28;20310;-62
2022/05/12 07:51:30;;;;;;;;;;;15.80;91.70;;;;;;5024583;28;19917;-65
2022/05/12 07:53:55;;;;;;;;;;;15.90;91.50;;;;;;5025433;28;20485;-64
2022/05/12 07:56:23;;;;;;;;;;;15.90;91.40;;;;;;5021530;28;19913;-64
2022/05/12 07:58:49;;;;;;;;;;;15.80;91.20;;;;;;5025716;28;20012;-64
2022/05/12 08:01:15;;;;;;;;;;;15.90;91.10;;;;;;5025897;28;19914;-62
2022/05/12 08:03:41;;;;;;;;;;;15.90;91.20;;;;;;5026159;28;19949;-63
2022/05/12 08:06:07;;;;;;;;;;;15.90;91.30;;;;;;5026671;28;20425;-63
2022/05/12 08:08:36;;;;;;;;;;;16.00;91.40;;;;;;5024434;28;19919;-66
2022/05/12 08:11:02;;;;;;;;;;;16.00;91.60;;;;;;5025150;28;19913;-64
2022/05/12 08:13:28;;;;;;;;;;;16.10;91.70;;;;;;5022801;28;20294;-66
2022/05/12 08:15:53;;;;;;;;;;;16.20;91.10;;;;;;5026378;28;19971;-65
2022/05/12 08:18:21;;;;;;;;;;;16.20;90.80;;;;;;5025162;28;19959;-63
2022/05/12 08:20:47;;;;;;;;;;;16.20;91.10;;;;;;5025430;28;19936;-63
2022/05/12 08:23:12;;;;;;;;;;;16.20;90.50;;;;;;5020479;28;20359;-64
2022/05/12 08:25:38;;;;;;;;;;;16.30;90.30;;;;;;5023259;28;19928;-63
2022/05/12 08:28:04;;;;;;;;;;;16.30;90.00;;;;;;5026098;28;20672;-64
2022/05/12 08:30:30;;;;;;;;;;;16.30;90.30;;;;;;5027366;28;20003;-65
2022/05/12 08:32:56;;;;;;;;;;;16.30;90.00;;;;;;5023900;28;19921;-64
2022/05/12 08:35:21;;;;;;;;;;;16.40;88.70;;;;;;5025601;28;19923;-64
2022/05/12 08:37:47;;;;;;;;;;;16.40;89.60;;;;;;5026462;28;19921;-63
2022/05/12 08:40:33;;;;;;;;;;;16.40;89.50;;;;;;5027054;28;20543;-64
2022/05/12 08:43:15;;;;;;;;;;;16.50;89.80;;;;;;5040408;28;20371;-59
2022/05/12 08:45:41;;;;;;;;;;;16.50;90.00;;;;;;5024990;28;20015;-59
2022/05/12 08:48:08;;;;;;;;;;;16.60;89.50;;;;;;5034112;28;19928;-59
2022/05/12 08:50:36;;;;;;;;;;;16.50;88.60;;;;;;5038336;28;19917;-58
2022/05/12 08:53:05;;;;;;;;;;;16.60;88.10;;;;;;5030003;28;19922;-59
2022/05/12 08:55:40;;;;;;;;;;;16.60;87.70;;;;;;5049864;28;19915;-58
2022/05/12 08:58:07;;;;;;;;;;;16.60;88.10;;;;;;5048922;28;19915;-58
2022/05/12 09:00:52;;;;;;;;;;;16.70;88.60;;;;;;5033110;28;19920;-58
2022/05/12 09:03:24;;;;;;;;;;;16.80;87.00;;;;;;5038646;28;20041;-59
2022/05/12 09:05:57;;;;;;;;;;;16.80;88.10;;;;;;5046027;28;19932;-58
2022/05/12 09:08:38;;;;;;;;;;;16.90;87.80;;;;;;5039343;28;19920;-58
2022/05/12 09:11:06;;;;;;;;;;;17.00;88.30;;;;;;5030169;28;19913;-57
2022/05/12 09:14:03;;;;;;;;;;;17.10;85.90;;;;;;5048754;28;19909;-59
2022/05/12 09:16:31;;;;;;;;;;;17.10;86.90;;;;;;5021176;28;19920;-59
2022/05/12 09:18:57;;;;;;;;;;;17.20;86.90;;;;;;5045972;28;19909;-58
2022/05/12 09:21:22;;;;;;;;;;;17.30;87.80;;;;;;5031601;28;19940;-58
2022/05/12 09:23:49;;;;;;;;;;;17.40;88.00;;;;;;5029564;28;19916;-58
2022/05/12 09:26:33;;;;;;;;;;;17.60;88.00;;;;;;5031202;28;20001;-59
2022/05/12 09:29:09;;;;;;;;;;;17.70;88.20;;;;;;5028877;28;19976;-58
2022/05/12 09:31:34;;;;;;;;;;;17.80;87.90;;;;;;5031779;28;19909;-56
2022/05/12 09:34:12;;;;;;;;;;;17.90;87.80;;;;;;5032352;28;20286;-58
2022/05/12 09:36:38;;;;;;;;;;;18.00;87.00;;;;;;5027641;28;19913;-58
2022/05/12 09:39:03;;;;;;;;;;;18.00;86.30;;;;;;5033517;28;20313;-59
2022/05/12 09:41:38;;;;;;;;;;;18.20;87.00;;;;;;5028434;28;19913;-57
2022/05/12 09:44:29;;;;;;;;;;;18.20;86.50;;;;;;5027072;28;19921;-58
2022/05/12 09:47:16;;;;;;;;;;;18.30;87.20;;;;;;5027939;28;20308;-59
2022/05/12 09:49:42;;;;;;;;;;;18.40;87.80;;;;;;5029040;28;20007;-58
2022/05/12 09:52:24;;;;;;;;;;;18.50;86.10;;;;;;5031811;28;19917;-58
2022/05/12 09:55:07;;;;;;;;;;;18.50;86.60;;;;;;5028669;28;19913;-57
2022/05/12 09:57:35;;;;;;;;;;;18.70;87.00;;;;;;5028323;28;19916;-58
2022/05/12 10:00:03;;;;;;;;;;;18.80;86.30;;;;;;5027595;28;19913;-58
2022/05/12 10:08:09;;;;;;;;;;;19.00;85.30;;;;;;5027481;28;19916;-58
2022/05/12 10:10:36;;;;;;;;;;;19.10;84.70;;;;;;5029828;28;19913;-59
2022/05/12 10:13:04;;;;;;;;;;;19.20;84.70;;;;;;5029136;28;19958;-59
2022/05/12 10:15:34;;;;;;;;;;;19.20;82.90;;;;;;5028905;28;19916;-58
2022/05/12 10:18:03;;;;;;;;;;;19.30;83.80;;;;;;5026678;28;19920;-57
2022/05/12 10:20:29;;;;;;;;;;;19.40;85.30;;;;;;5026768;28;19921;-57
2022/05/12 10:23:13;;;;;;;;;;;19.50;84.00;;;;;;5030528;28;19913;-58
2022/05/12 10:25:57;;;;;;;;;;;19.70;84.60;;;;;;5030774;28;19917;-58
2022/05/12 10:28:25;;;;;;;;;;;19.80;83.60;;;;;;5031628;28;20366;-58
2022/05/12 10:31:20;;;;;;;;;;;19.90;82.90;;;;;;5027136;28;19963;-58
2022/05/12 10:34:00;;;;;;;;;;;19.90;82.00;;;;;;5025625;28;19959;-58
2022/05/12 10:36:41;;;;;;;;;;;19.70;79.30;;;;;;5026205;28;19916;-58
2022/05/12 10:39:18;;;;;;;;;;;19.70;79.80;;;;;;5026768;28;19952;-57
2022/05/12 10:42:04;;;;;;;;;;;19.60;79.50;;;;;;5027613;28;19916;-58
2022/05/12 10:44:39;;;;;;;;;;;19.60;78.40;;;;;;5026228;28;19921;-58
2022/05/12 10:47:07;;;;;;;;;;;19.50;79.00;;;;;;5026962;28;19920;-58
2022/05/12 10:49:53;;;;;;;;;;;19.40;79.00;;;;;;5028678;28;19975;-58
2022/05/12 10:52:25;;;;;;;;;;;19.50;80.10;;;;;;5031606;28;19956;-58
2022/05/12 10:54:53;;;;;;;;;;;19.60;80.20;;;;;;5027152;28;20342;-58
2022/05/12 10:57:19;;;;;;;;;;;19.70;78.90;;;;;;5027196;28;19920;-58
2022/05/12 10:59:44;;;;;;;;;;;19.70;79.30;;;;;;5028194;28;19917;-57
2022/05/12 11:02:13;;;;;;;;;;;19.80;80.00;;;;;;5030118;28;19913;-58
2022/05/12 11:04:43;;;;;;;;;;;19.90;78.00;;;;;;5029909;28;19975;-59
2022/05/12 11:07:13;;;;;;;;;;;19.90;78.20;;;;;;5029697;28;19917;-58
2022/05/12 11:09:43;;;;;;;;;;;19.90;78.80;;;;;;5026666;28;19913;-58
2022/05/12 11:12:17;;;;;;;;;;;19.90;79.60;;;;;;5026062;28;20183;-58
2022/05/12 11:14:49;;;;;;;;;;;20.00;78.70;;;;;;5034644;28;19909;-59
2022/05/12 11:17:18;;;;;;;;;;;20.10;78.80;;;;;;5038903;28;19936;-58
2022/05/12 11:19:46;;;;;;;;;;;20.20;79.00;;;;;;5027371;28;20002;-59
2022/05/12 11:22:31;;;;;;;;;;;20.30;78.80;;;;;;5030462;28;19913;-55
2022/05/12 11:24:56;;;;;;;;;;;20.40;77.50;;;;;;5030133;28;19917;-59
2022/05/12 11:27:25;;;;;;;;;;;20.40;76.40;;;;;;5040735;28;19916;-59
2022/05/12 11:29:51;;;;;;;;;;;20.40;76.90;;;;;;5034966;28;19913;-59
2022/05/12 11:32:17;;;;;;;;;;;20.50;77.80;;;;;;5029792;28;19916;-58
2022/05/12 11:34:46;;;;;;;;;;;20.60;75.90;;;;;;5027863;28;19913;-59
2022/05/12 11:37:26;;;;;;;;;;;20.60;78.40;;;;;;5029422;28;19920;-59
2022/05/12 11:39:54;;;;;;;;;;;20.80;78.00;;;;;;5025949;28;19921;-58
2022/05/12 11:42:21;;;;;;;;;;;20.80;77.40;;;;;;5020235;28;19920;-57
2022/05/12 11:44:58;;;;;;;;;;;20.90;75.50;;;;;;5025210;28;20317;-58
2022/05/12 11:47:43;;;;;;;;;;;20.90;76.60;;;;;;5020199;28;19939;-58
2022/05/12 11:50:14;;;;;;;;;;;20.90;76.50;;;;;;5023898;28;19923;-59
2022/05/12 11:52:49;;;;;;;;;;;21.00;75.20;;;;;;5018937;28;19928;-58
2022/05/12 11:55:34;;;;;;;;;;;21.00;76.00;;;;;;5025673;28;19920;-58
2022/05/12 11:58:08;;;;;;;;;;;21.10;76.30;;;;;;5026791;28;19914;-59
2022/05/12 12:00:33;;;;;;;;;;;21.20;76.10;;;;;;5024368;28;19924;-59
2022/05/12 12:02:59;;;;;;;;;;;21.30;76.00;;;;;;5025807;28;19918;-58
2022/05/12 12:05:29;;;;;;;;;;;21.30;76.20;;;;;;5026988;28;19953;-58
2022/05/12 12:08:04;;;;;;;;;;;21.40;75.10;;;;;;5023258;28;19917;-59
2022/05/12 12:10:31;;;;;;;;;;;21.40;73.60;;;;;;5020287;28;20306;-57
2022/05/12 12:12:56;;;;;;;;;;;21.30;73.30;;;;;;5029724;28;20443;-59
2022/05/12 12:15:30;;;;;;;;;;;21.20;73.20;;;;;;5026834;28;19917;-59
2022/05/12 12:17:55;;;;;;;;;;;21.30;73.90;;;;;;5025084;28;19924;-58
2022/05/12 12:20:30;;;;;;;;;;;21.30;73.70;;;;;;5022985;28;19913;-59
2022/05/12 12:22:55;;;;;;;;;;;21.30;75.40;;;;;;5020864;28;20012;-59
2022/05/12 12:25:34;;;;;;;;;;;21.30;74.70;;;;;;5028955;28;20554;-58
2022/05/12 12:28:15;;;;;;;;;;;21.40;75.20;;;;;;5023467;28;19913;-58
2022/05/12 12:30:52;;;;;;;;;;;21.40;73.40;;;;;;5027085;28;20471;-59
2022/05/12 12:33:20;;;;;;;;;;;21.30;73.20;;;;;;5025321;28;20298;-58
2022/05/12 12:35:50;;;;;;;;;;;21.30;74.40;;;;;;5027747;28;19913;-58
2022/05/12 12:38:34;;;;;;;;;;;21.30;74.40;;;;;;5025597;28;19920;-58
2022/05/12 12:41:01;;;;;;;;;;;21.30;73.90;;;;;;5029320;28;19940;-58
2022/05/12 12:43:28;;;;;;;;;;;21.30;74.10;;;;;;5030554;28;19923;-59
2022/05/12 12:45:53;;;;;;;;;;;21.30;73.50;;;;;;5025743;28;19935;-59
2022/05/12 12:48:21;;;;;;;;;;;21.30;73.60;;;;;;5027712;28;19921;-58
2022/05/12 12:50:52;;;;;;;;;;;21.40;72.60;;;;;;5029159;28;19925;-59
2022/05/12 12:56:32;;;;;;;;;;;21.50;73.50;;;;;;5020278;28;19927;-59
2022/05/12 12:59:00;;;;;;;;;;;21.50;73.20;;;;;;5014735;28;19918;-58
2022/05/12 13:01:35;;;;;;;;;;;21.50;72.90;;;;;;5015537;28;19922;-59
2022/05/12 13:04:00;;;;;;;;;;;21.60;73.10;;;;;;5016335;28;19922;-58
2022/05/12 13:06:31;;;;;;;;;;;21.70;73.00;;;;;;5019305;28;19928;-59
2022/05/12 13:08:57;;;;;;;;;;;21.70;72.80;;;;;;5018149;28;19918;-60
2022/05/12 13:11:23;;;;;;;;;;;21.80;72.60;;;;;;5016619;28;19913;-60
2022/05/12 13:13:50;;;;;;;;;;;21.70;70.60;;;;;;5016872;28;19917;-59
2022/05/12 13:16:17;;;;;;;;;;;21.70;71.40;;;;;;5019025;28;19941;-59
2022/05/12 13:18:46;;;;;;;;;;;21.80;71.30;;;;;;5017243;28;19964;-59
2022/05/12 13:21:18;;;;;;;;;;;21.80;71.70;;;;;;5017846;28;19991;-59
2022/05/12 13:23:56;;;;;;;;;;;21.90;71.80;;;;;;5002076;28;19917;-58
2022/05/12 13:26:22;;;;;;;;;;;21.90;71.30;;;;;;5019434;28;19948;-59
2022/05/12 13:28:47;;;;;;;;;;;22.00;71.00;;;;;;5012146;28;19925;-59
2022/05/12 13:31:23;;;;;;;;;;;22.00;71.20;;;;;;5019282;28;19918;-59
2022/05/12 13:34:05;;;;;;;;;;;22.00;70.00;;;;;;5022443;28;19920;-59
2022/05/12 13:36:33;;;;;;;;;;;22.00;70.30;;;;;;5023205;28;19921;-58
2022/05/12 13:38:59;;;;;;;;;;;21.90;70.20;;;;;;5030793;28;19917;-59
2022/05/12 13:41:30;;;;;;;;;;;21.90;69.80;;;;;;5034648;28;19966;-59
2022/05/12 13:44:05;;;;;;;;;;;21.90;69.70;;;;;;5024421;28;20029;-58
2022/05/12 13:46:34;;;;;;;;;;;21.90;69.60;;;;;;5022695;28;20454;-59
2022/05/12 13:48:59;;;;;;;;;;;21.90;70.20;;;;;;5028247;28;19956;-56
2022/05/12 13:51:40;;;;;;;;;;;21.90;70.30;;;;;;5026043;28;19952;-58
2022/05/12 13:54:08;;;;;;;;;;;21.80;69.20;;;;;;5023525;28;20282;-59
2022/05/12 13:56:35;;;;;;;;;;;21.70;68.00;;;;;;5024064;28;20015;-59
2022/05/12 13:59:13;;;;;;;;;;;21.50;68.40;;;;;;5027519;28;19948;-59
2022/05/12 14:01:39;;;;;;;;;;;21.40;68.20;;;;;;5026012;28;20382;-59
2022/05/12 14:04:11;;;;;;;;;;;21.40;69.70;;;;;;5029266;28;19909;-58
2022/05/12 14:06:48;;;;;;;;;;;21.40;69.50;;;;;;5024640;28;19928;-59
2022/05/12 14:09:17;;;;;;;;;;;21.50;69.40;;;;;;5025120;28;19949;-59
2022/05/12 14:11:54;;;;;;;;;;;21.50;69.30;;;;;;5021987;28;19922;-60
2022/05/12 14:19:49;;;;;;;;;;;21.40;67.80;;;;;;5021030;28;19927;-59
2022/05/12 14:22:17;;;;;;;;;;;21.40;67.00;;;;;;5024627;28;19917;-59
2022/05/12 14:24:45;;;;;;;;;;;21.40;68.70;;;;;;5023650;28;19936;-59
2022/05/12 14:27:12;;;;;;;;;;;21.50;68.60;;;;;;5024800;28;19924;-59
2022/05/12 14:29:38;;;;;;;;;;;21.50;68.10;;;;;;5021763;28;20381;-59
2022/05/12 14:32:04;;;;;;;;;;;21.60;68.40;;;;;;5025203;28;20209;-59
2022/05/12 14:34:30;;;;;;;;;;;21.60;67.90;;;;;;5021674;28;19987;-59
2022/05/12 14:37:00;;;;;;;;;;;21.50;68.00;;;;;;5020488;28;19913;-59
2022/05/12 14:39:26;;;;;;;;;;;21.60;68.20;;;;;;5025425;28;20024;-59
2022/05/12 14:41:52;;;;;;;;;;;21.50;67.90;;;;;;5024388;28;19913;-59
2022/05/12 14:44:17;;;;;;;;;;;21.50;68.30;;;;;;5023350;28;19917;-58
2022/05/12 14:46:44;;;;;;;;;;;21.50;68.10;;;;;;5020512;28;19972;-59
2022/05/12 14:49:11;;;;;;;;;;;21.40;67.60;;;;;;5022664;28;20298;-60